Data for 03/15/2015

Time Sea-Level Adjusted Pressure Absolute Pressure Temperature Relative Humidity Dew Point   
(mb) (inHg) (mb) (inHg) (C) (F) (%) (C) (F)
00:05 1017 30.03 846 24.98 14 57.2 32 -2.3 27.9
00:10 1017 30.03 846 24.98 14.1 57.3 32 -2.3 27.9
00:15 1017 30.03 846 24.98 14.2 57.5 32 -2.4 27.7
00:20 1017 30.03 846 24.98 14.3 57.8 31 -2.3 27.8
00:25 1017 30.03 846 24.98 14.3 57.7 32 -2.1 28.1
00:30 1017 30.03 846 24.98 14.1 57.4 32 -2.1 28.3
00:35 1017 30.03 846 24.98 14.3 57.8 31 -2.5 27.6
00:40 1017 30.03 846 24.98 14.6 58.2 31 -2.2 28
00:45 1016 30 846 24.98 14.4 58 31 -2.2 28
00:50 1016 30 845 24.95 14.2 57.6 32 -2.1 28.2
00:55 1016 30 845 24.95 14 57.2 32 -2.3 27.8
01:00 1016 30 845 24.95 14.1 57.3 32 -2.3 27.8
01:05 1016 30 846 24.98 14 57.2 32 -2.1 28.1
01:10 1016 30 845 24.95 13.8 56.8 33 -2 28.3
01:15 1016 30 845 24.95 13.5 56.3 34 -2.2 28.1
01:20 1016 30 845 24.95 13.3 55.9 35 -1.8 28.7
01:25 1016 30 845 24.95 12.9 55.2 35 -2.1 28.3
01:30 1016 30 845 24.95 12.7 54.8 36 -2.1 28.3
01:35 1016 30 845 24.95 12.4 54.3 36 -2.3 27.9
01:40 1016 30 845 24.95 12.5 54.6 35 -2.5 27.6
01:45 1016 30 845 24.95 12.6 54.8 35 -2.3 27.9
01:50 1016 30 845 24.95 12.4 54.3 37 -1.8 28.7
01:55 1016 30 845 24.95 11.6 52.8 40 -1.7 29
02:00 1016 30 845 24.95 11.4 52.5 38 -2.3 27.9
02:05 1016 30 845 24.95 11.8 53.3 38 -2.1 28.3
02:10 1016 30 845 24.95 12.3 54.1 37 -1.8 28.7
02:15 1016 30 845 24.95 12.3 54.1 37 -2 28.4
02:20 1016 30 845 24.95 12.4 54.3 37 -1.7 28.9
02:25 1016 30 845 24.95 12.2 54 38 -1.6 29.1
02:30 1016 30 845 24.95 12.3 54.1 38 -1.5 29.3
02:35 1016 30 845 24.95 12.1 53.8 37 -1.9 28.5
02:40 1016 30 845 24.95 12.2 53.9 38 -1.9 28.7
02:45 1016 30 845 24.95 12.1 53.8 37 -2 28.4
02:50 1016 30 845 24.95 12.4 54.4 36 -2.1 28.3
02:55 1016 30 845 24.95 12.7 54.8 36 -1.9 28.6
03:00 1016 30 845 24.95 12.6 54.6 36 -1.9 28.6
03:05 1016 30 845 24.95 12.7 54.9 36 -2 28.4
03:10 1016 30 845 24.95 13.1 55.5 36 -1.7 29
03:15 1016 30 845 24.95 13 55.3 36 -1.6 29.1
03:20 1016 30 845 24.95 12.7 54.9 37 -1.4 29.6
03:25 1016 30 845 24.95 12.5 54.5 38 -1.3 29.7
03:30 1016 30 845 24.95 12.4 54.4 38 -1.3 29.7
03:35 1016 30 845 24.95 12.3 54.2 40 -0.8 30.5
03:40 1016 30 845 24.95 12.5 54.5 39 -0.9 30.4
03:45 1016 30 845 24.95 12.8 55 39 -0.8 30.6
03:50 1016 30 845 24.95 12.8 55.1 40 -0.5 31.1
03:55 1016 30 845 24.95 13.4 56.1 38 -0.7 30.8
04:00 1016 30 845 24.95 13.9 57 38 -0.2 31.7
04:05 1016 30 845 24.95 13.8 56.8 38 -0.1 31.9
04:10 1016 30 845 24.95 14.2 57.6 37 0 32
04:15 1016 30 845 24.95 14.4 58 37 -0.2 31.7
04:20 1016 30 845 24.95 13.5 56.3 40 0.1 32.3
04:25 1016 30 845 24.95 11.8 53.3 44 -0.1 31.9
04:30 1016 30 845 24.95 12.3 54.2 40 -1 30.2
04:35 1016 30 845 24.95 11.8 53.2 43 -0.3 31.4
04:40 1016 30 845 24.95 12 53.6 39 -1.3 29.7
04:45 1016 30 845 24.95 12 53.5 40 -1.2 29.8
04:50 1016 30 845 24.95 11.8 53.3 40 -1.3 29.6
04:55 1016 30 845 24.95 12.1 53.8 39 -1.2 29.8
05:00 1016 30 845 24.95 12.3 54.2 40 -0.9 30.3
05:05 1016 30 845 24.95 13.3 55.9 39 -0.3 31.4
05:10 1016 30 845 24.95 14.1 57.5 37 -0.2 31.6
05:15 1016 30 846 24.98 14.5 58.1 36 -0.4 31.3
05:20 1016 30 846 24.98 13.6 56.5 38 -0.4 31.3
05:25 1016 30 846 24.98 13.3 55.9 38 -0.5 31
05:30 1016 30 846 24.98 13.3 56 38 -0.5 31.1
05:35 1016 30 846 24.98 13.5 56.3 38 -0.6 31
05:40 1016 30 845 24.95 13.3 55.9 39 -0.3 31.4
05:45 1016 30 845 24.95 12.7 54.9 40 -0.5 31.1
05:50 1016 30 845 24.95 13 55.5 39 -0.4 31.3
05:55 1016 30 845 24.95 13.6 56.6 37 -0.6 30.8
06:00 1016 30 845 24.95 14 57.2 38 -0.1 31.7
06:05 1016 30 845 24.95 13.5 56.3 39 0 32
06:10 1016 30 845 24.95 13.4 56 38 -0.6 30.9
06:15 1016 30 845 24.95 13.8 56.9 39 0.2 32.3
06:20 1016 30 845 24.95 13.1 55.5 41 0.1 32.1
06:25 1016 30 845 24.95 12.9 55.3 42 0.4 32.7
06:30 1016 30 845 24.95 13 55.4 41 0.1 32.1
06:35 1016 30 845 24.95 13.4 56.2 39 -0.1 31.8
06:40 1016 30 845 24.95 13.8 56.9 38 -0.1 31.9
06:45 1016 30 845 24.95 13.9 57 39 0.3 32.6
06:50 1016 30 845 24.95 14.2 57.6 38 0.4 32.6
06:55 1016 30 845 24.95 14.8 58.7 37 0.2 32.4
07:00 1016 30 845 24.95 15 59.1 37 0.7 33.3
07:05 1016 30 845 24.95 15.1 59.2 38 0.8 33.4
07:10 1016 30 845 24.95 15.3 59.5 37 0.9 33.6
07:15 1016 30 845 24.95 15.1 59.1 38 1 33.9
07:20 1016 30 845 24.95 15 59 38 0.8 33.5
07:25 1016 30 845 24.95 15.1 59.2 37 0.7 33.2
07:30 1016 30 845 24.95 15.4 59.8 37 0.9 33.7
07:35 1016 30 845 24.95 15.4 59.8 37 1 33.8
07:40 1016 30 845 24.95 15.2 59.3 38 1.1 34
07:45 1016 30 845 24.95 14.5 58.1 39 0.9 33.6
07:50 1016 30 845 24.95 14 57.2 41 1 33.7
07:55 1016 30 845 24.95 13.9 57.1 41 0.8 33.5
08:00 1016 30 845 24.95 14 57.2 41 1 33.7
08:05 1016 30 845 24.95 14 57.2 41 1.2 34.1
08:10 1016 30 845 24.95 13.9 56.9 42 1.2 34.2
08:15 1016 30 845 24.95 13.8 56.9 42 1.3 34.3
08:20 1016 30 845 24.95 13.8 56.8 44 1.8 35.2
08:25 1016 30 845 24.95 13.9 57.1 42 1.5 34.6
08:30 1016 30 845 24.95 14 57.2 43 1.8 35.2
08:35 1016 30 845 24.95 14.4 57.9 40 1 33.8
08:40 1016 30 845 24.95 14.8 58.7 40 1.3 34.4
08:45 1016 30 845 24.95 14.7 58.5 43 2.2 35.9
08:50 1016 30 845 24.95 13.5 56.4 46 2.3 36.2
08:55 1016 30 845 24.95 13.7 56.7 45 1.9 35.5
09:00 1016 30 845 24.95 13.5 56.2 44 1.7 35
09:05 1016 30 845 24.95 13.5 56.3 44 1.7 35.1
09:10 1016 30 845 24.95 13.7 56.6 43 1.4 34.6
09:15 1016 30 845 24.95 14 57.3 42 1.3 34.3
09:20 1016 30 845 24.95 14.4 57.9 41 1.4 34.4
09:25 1016 30 845 24.95 14.6 58.3 41 1.5 34.7
09:30 1016 30 845 24.95 14.6 58.3 41 1.7 35
09:35 1016 30 845 24.95 14.5 58.1 41 1.6 35
09:40 1016 30 845 24.95 14.4 57.9 43 1.9 35.4
09:45 1016 30 845 24.95 14.2 57.6 43 1.9 35.4
09:50 1016 30 845 24.95 14.2 57.5 44 2.1 35.7
09:55 1016 30 845 24.95 14.1 57.4 46 2.6 36.6
10:00 1016 30 845 24.95 14.1 57.3 44 2.2 36
10:05 1016 30 845 24.95 14 57.2 44 2.1 35.8
10:10 1016 30 845 24.95 13.9 57.1 44 2.1 35.8
10:15 1016 30 845 24.95 13.9 56.9 43 1.7 35.1
10:20 1016 30 845 24.95 13.9 57.1 43 1.7 35.1
10:25 1016 30 845 24.95 13.9 57.1 44 1.8 35.3
10:30 1016 30 845 24.95 13.9 57.1 43 1.7 35.1
10:35 1016 30 845 24.95 13.9 57.1 43 1.8 35.2
10:40 1016 30 845 24.95 13.9 57.1 43 1.7 35.1
10:45 1016 30 845 24.95 13.9 57.1 43 1.7 35.1
10:50 1016 30 845 24.95 14 57.1 43 1.6 34.9
10:55 1016 30 845 24.95 14 57.2 43 1.7 35.1
11:00 1016 30 845 24.95 14.1 57.3 43 1.9 35.4
11:05 1016 30 845 24.95 14.2 57.5 43 1.9 35.4
11:10 1016 30 845 24.95 14.1 57.4 43 1.8 35.2
11:15 1016 30 846 24.98 14.1 57.3 43 1.7 35.1
11:20 1016 30 846 24.98 14.1 57.3 43 1.6 34.9
11:25 1016 30 846 24.98 14.1 57.3 42 1.4 34.6
11:30 1016 30 846 24.98 14.1 57.4 41 1.1 34
11:35 1016 30 846 24.98 14.1 57.4 40 1 33.8
11:40 1016 30 846 24.98 14.2 57.6 40 1 33.7
11:45 1017 30.03 846 24.98 14.2 57.6 39 0.7 33.3
11:50 1017 30.03 846 24.98 14.4 57.8 38 0.4 32.7
11:55 1017 30.03 846 24.98 14.5 58.1 39 0.7 33.3
12:00 1017 30.03 846 24.98 14.6 58.3 37 0.3 32.6
12:05 1017 30.03 846 24.98 14.6 58.2 38 0.4 32.7
12:10 1017 30.03 846 24.98 14.6 58.3 37 0.2 32.4
12:15 1017 30.03 846 24.98 14.6 58.3 37 0.3 32.5
12:20 1017 30.03 846 24.98 14.6 58.3 37 0.3 32.5
12:25 1017 30.03 846 24.98 14.6 58.2 42 1.8 35.2
12:30 1017 30.03 846 24.98 14.1 57.4 42 1.3 34.4
12:35 1017 30.03 846 24.98 14 57.2 42 1.4 34.4
12:40 1017 30.03 846 24.98 14.1 57.4 38 0.3 32.5
12:45 1017 30.03 846 24.98 14.6 58.3 38 0.4 32.7
12:50 1017 30.03 846 24.98 14.8 58.6 37 0.3 32.6
12:55 1017 30.03 846 24.98 14.8 58.7 34 -1 30.2
13:00 1017 30.03 846 24.98 15.4 59.7 32 -1 30.2
13:05 1017 30.03 846 24.98 15.7 60.3 31 -1.3 29.7
13:10 1016 30 846 24.98 15.9 60.5 30 -1.4 29.4
13:15 1016 30 846 24.98 16 60.9 29 -1.7 29
13:20 1016 30 846 24.98 16.2 61.1 29 -1.8 28.7
13:25 1016 30 846 24.98 16.2 61.1 30 -1.5 29.3
13:30 1016 30 846 24.98 16.1 60.9 29 -1.7 29
13:35 1016 30 846 24.98 16 60.8 30 -1.5 29.2
13:40 1016 30 846 24.98 16 60.8 29 -2 28.4
13:45 1016 30 846 24.98 16 60.8 29 -1.9 28.5
13:50 1016 30 846 24.98 16 60.7 29 -2 28.4
13:55 1016 30 845 24.95 15.9 60.6 28 -2.4 27.7
14:00 1016 30 845 24.95 16 60.8 28 -2.6 27.3
14:05 1016 30 845 24.95 16.1 61 33 -0.1 31.7
14:10 1016 30 845 24.95 14.9 58.9 42 2.4 36.3
14:15 1016 30 845 24.95 14.2 57.6 43 1.9 35.5
14:20 1016 30 845 24.95 14.2 57.5 42 1.6 34.8
14:25 1016 30 845 24.95 14.4 58 39 0.8 33.5
14:30 1016 30 845 24.95 14.6 58.2 38 0.7 33.2
14:35 1016 30 845 24.95 14.7 58.4 38 0.5 32.9
14:40 1016 30 845 24.95 14.7 58.4 37 0.4 32.7
14:45 1016 30 845 24.95 14.8 58.6 37 0.3 32.5
14:50 1016 30 845 24.95 14.9 58.9 36 -0.1 31.8
14:55 1016 30 845 24.95 15 59.1 35 -0.2 31.6
15:00 1016 30 845 24.95 15 59.1 35 -0.3 31.4
15:05 1016 30 845 24.95 15.2 59.3 34 -0.4 31.3
15:10 1016 30 845 24.95 15.3 59.5 33 -0.7 30.8
15:15 1016 30 845 24.95 15.4 59.7 32 -1 30.1
15:20 1016 30 845 24.95 15.4 59.8 31 -1.4 29.5
15:25 1016 30 845 24.95 15.7 60.3 32 -0.6 30.9
15:30 1016 30 845 24.95 15.6 60.1 32 -1 30.2
15:35 1016 30 845 24.95 15.6 60.1 32 -0.8 30.5
15:40 1015 29.97 845 24.95 15.5 59.9 32 -0.9 30.3
15:45 1015 29.97 845 24.95 15.5 59.9 32 -1.1 30
15:50 1015 29.97 845 24.95 15.6 60.2 32 -1.1 30.1
15:55 1015 29.97 845 24.95 15.7 60.2 33 -0.4 31.2
16:00 1015 29.97 845 24.95 15.6 60 33 -0.4 31.3
16:05 1015 29.97 845 24.95 15.5 59.8 33 -0.8 30.6
16:10 1015 29.97 845 24.95 15.6 60.1 32 -0.9 30.4
16:15 1015 29.97 845 24.95 15.7 60.2 33 -0.6 30.9
16:20 1015 29.97 845 24.95 15.6 60 34 -0.3 31.4
16:25 1015 29.97 844 24.92 15.5 59.9 33 -0.4 31.2
16:30 1015 29.97 844 24.92 15.5 59.9 34 -0.3 31.5
16:35 1015 29.97 844 24.92 15.5 59.9 33 -0.5 31.1
16:40 1015 29.97 844 24.92 15.5 59.9 33 -0.6 30.9
16:45 1015 29.97 844 24.92 15.5 59.8 33 -0.6 30.9
16:50 1015 29.97 844 24.92 15.4 59.7 33 -0.7 30.7
16:55 1015 29.97 844 24.92 15.4 59.7 33 -0.6 30.9
17:00 1015 29.97 844 24.92 15.3 59.6 33 -0.7 30.8
17:05 1015 29.97 844 24.92 15.3 59.6 33 -1 30.3
17:10 1015 29.97 844 24.92 15.3 59.6 32 -1 30.2
17:15 1015 29.97 844 24.92 15.4 59.7 31 -1.5 29.3
17:20 1015 29.97 844 24.92 15.5 59.9 31 -1.5 29.4
17:25 1015 29.97 844 24.92 15.4 59.7 33 -0.8 30.5
17:30 1015 29.97 844 24.92 15.2 59.3 32 -1.4 29.4
17:35 1015 29.97 844 24.92 15.3 59.5 31 -1.8 28.8
17:40 1015 29.97 844 24.92 15.3 59.5 33 -0.8 30.6
17:45 1015 29.97 844 24.92 15 59 31 -1.8 28.7
17:50 1015 29.97 844 24.92 15.1 59.2 32 -1.4 29.5
17:55 1015 29.97 844 24.92 15 58.9 32 -1.5 29.3
18:00 1015 29.97 844 24.92 15 58.9 32 -1.4 29.4
18:05 1015 29.97 844 24.92 14.9 58.8 32 -1.6 29.1
18:10 1015 29.97 844 24.92 14.9 58.8 32 -1.5 29.3
18:15 1015 29.97 844 24.92 14.7 58.4 33 -1.4 29.4
18:20 1015 29.97 844 24.92 14.5 58.1 33 -1.5 29.2
18:25 1015 29.97 844 24.92 14.4 58 34 -1.3 29.6
18:30 1015 29.97 844 24.92 14.3 57.7 34 -1.4 29.4
18:35 1014 29.94 844 24.92 14.1 57.4 33 -1.7 28.9
18:40 1014 29.94 844 24.92 14.6 58.2 33 -1.6 29.2
18:45 1014 29.94 844 24.92 14.2 57.6 34 -1.5 29.3
18:50 1014 29.94 844 24.92 14.1 57.4 33 -1.7 28.9
18:55 1014 29.94 844 24.92 14.2 57.6 33 -1.6 29.2
19:00 1014 29.94 844 24.92 14 57.3 34 -1.6 29.2
19:05 1014 29.94 844 24.92 14.2 57.6 33 -1.8 28.8
19:10 1014 29.94 844 24.92 14.2 57.5 34 -1.4 29.4
19:15 1014 29.94 843 24.89 14 57.2 32 -2.3 27.8
19:20 1014 29.94 843 24.89 14.9 58.8 31 -2.2 28.1
19:25 1014 29.94 844 24.92 15.1 59.1 32 -1.6 29.1
19:30 1014 29.94 844 24.92 14.6 58.2 33 -1.4 29.5
19:35 1014 29.94 844 24.92 13.9 57 35 -1.4 29.5
19:40 1014 29.94 844 24.92 13.5 56.3 35 -1.7 28.9
19:45 1014 29.94 844 24.92 13.3 56 36 -1.5 29.3
19:50 1014 29.94 844 24.92 13.4 56.1 34 -1.9 28.5
19:55 1014 29.94 844 24.92 14.2 57.5 31 -2.8 27
20:00 1014 29.94 844 24.92 15.3 59.6 29 -2.6 27.4
20:05 1014 29.94 843 24.89 15 59 29 -2.7 27.1
20:10 1014 29.94 843 24.89 15.2 59.3 28 -2.9 26.8
20:15 1014 29.94 843 24.89 15.5 59.8 29 -2.6 27.3
20:20 1014 29.94 844 24.92 15.3 59.6 29 -2.3 27.9
20:25 1014 29.94 843 24.89 15.2 59.4 29 -2.7 27.1
20:30 1014 29.94 843 24.89 15.2 59.4 29 -2.8 27
20:35 1014 29.94 843 24.89 15.2 59.3 28 -2.9 26.7
20:40 1014 29.94 843 24.89 14.9 58.7 29 -3.1 26.5
20:45 1014 29.94 843 24.89 15.1 59.2 28 -3.3 26.1
20:50 1014 29.94 843 24.89 15.4 59.7 27 -3.3 26.1
20:55 1014 29.94 843 24.89 15.4 59.8 27 -3.6 25.6
21:00 1014 29.94 843 24.89 15.6 60 26 -3.6 25.4
21:05 1014 29.94 843 24.89 15.7 60.2 26 -3.7 25.3
21:10 1014 29.94 843 24.89 15.5 59.9 27 -3.5 25.8
21:15 1014 29.94 843 24.89 15.3 59.5 27 -3.7 25.3
21:20 1014 29.94 843 24.89 15.2 59.4 27 -3.4 25.9
21:25 1014 29.94 843 24.89 15.2 59.3 27 -3.7 25.4
21:30 1014 29.94 844 24.92 15.4 59.7 26 -3.7 25.3
21:35 1014 29.94 844 24.92 15.3 59.5 27 -3.4 25.8
21:40 1014 29.94 844 24.92 14.8 58.7 31 -2.2 28
21:45 1014 29.94 844 24.92 14 57.2 27 -4.5 23.9
21:50 1014 29.94 843 24.89 15.1 59.2 28 -3.4 25.9
21:55 1014 29.94 844 24.92 14.5 58.2 30 -2.7 27.2
22:00 1014 29.94 844 24.92 14 57.1 30 -3.3 26.1
22:05 1014 29.94 844 24.92 14.6 58.2 28 -3.7 25.3
22:10 1014 29.94 844 24.92 15.2 59.3 28 -3.1 26.4
22:15 1014 29.94 844 24.92 15.2 59.3 27 -3.4 25.9
22:20 1015 29.97 844 24.92 15.3 59.5 28 -3.2 26.2
22:25 1014 29.94 844 24.92 15 59.1 28 -3.1 26.4
22:30 1014 29.94 844 24.92 14.9 58.7 28 -3.2 26.2
22:35 1014 29.94 844 24.92 14.8 58.6 29 -3.2 26.3
22:40 1014 29.94 844 24.92 14.6 58.2 29 -3.2 26.2
22:45 1014 29.94 844 24.92 14.6 58.3 29 -3.2 26.3
22:50 1014 29.94 844 24.92 14.4 57.8 30 -2.9 26.8
22:55 1014 29.94 844 24.92 14.2 57.6 30 -3.1 26.4
23:00 1014 29.94 844 24.92 13.9 57 31 -2.9 26.7
23:05 1014 29.94 844 24.92 13.5 56.2 33 -2.6 27.3
23:10 1014 29.94 844 24.92 13 55.4 32 -3.1 26.4
23:15 1014 29.94 844 24.92 13 55.4 32 -3.1 26.5
23:20 1014 29.94 844 24.92 12.9 55.2 32 -3.2 26.2
23:25 1014 29.94 844 24.92 13.1 55.6 31 -3.4 25.9
23:30 1014 29.94 844 24.92 13.3 55.9 31 -3.4 25.9
23:35 1014 29.94 844 24.92 13.3 56 31 -3.3 26
23:40 1014 29.94 844 24.92 13.3 56 31 -3.5 25.8
23:45 1014 29.94 844 24.92 13.3 56 32 -3 26.6
23:50 1014 29.94 844 24.92 12.8 55.1 34 -2.6 27.3
23:55 1014 29.94 844 24.92 12 53.6 36 -2.5 27.5
24:00 1014 29.94 844 24.92 11.6 52.9 36 -3 26.6